Overview Statistics Trail Chart Weather Telemetry Raw packets
 

This is the latest recevied weather packets stored in our database for station/object EA4HRG-10. If no packets are shown the sender has not sent any weather packets the latest 10 day(s).

<< 7 8 9 10 11 12 13 >>
Time Temp. Humidity Pressure Rain* Wind** Luminosity Snow
1788425739 41.67° C 23% 1016.1 hPa - - - -
1788424839 34.44° C 33% 1018.5 hPa - - - -
1788423939 22.78° C 59% 1022.9 hPa - - - -
1788423039 20.56° C 66% 1023.6 hPa - - - -
1788422139 19.44° C 67% 1024.1 hPa - - - -
1788421239 18.33° C 70% 1024.5 hPa - - - -
1788420339 17.78° C 72% 1024.8 hPa - - - -
1788419439 16.67° C 68% 1025.2 hPa - - - -
1788418539 15.56° C 69% 1025.5 hPa - - - -
1788417639 15° C 75% 1025.7 hPa - - - -
1788416739 14.44° C 74% 1025.7 hPa - - - -
1788415839 14.44° C 72% 1025.7 hPa - - - -
1788414939 14.44° C 71% 1025.6 hPa - - - -
1788414039 13.89° C 71% 1025.6 hPa - - - -
1788413139 14.44° C 72% 1025.4 hPa - - - -
1788412239 14.44° C 71% 1025.1 hPa - - - -
1788411339 14.44° C 68% 1025.1 hPa - - - -
1788409539 15° C 65% 1024.9 hPa - - - -
1788408639 15° C 70% 1024.7 hPa - - - -
1788407739 15° C 65% 1024.4 hPa - - - -
1788406839 15.56° C 63% 1024.4 hPa - - - -
1788405939 15.56° C 61% 1024.4 hPa - - - -
1788405039 15.56° C 62% 1024.2 hPa - - - -
1788404139 15.56° C 59% 1024.3 hPa - - - -
1788403239 16.11° C 60% 1024.2 hPa - - - -

* Rain since midnight (hover to see other rain measurements)
** Current wind speed in m/s (hover to see current wind gust speed)